Time;durP1;ratioP1;P1;durP2;ratioP2;P2;SDS_P1;SDS_P2;PMS_P1;PMS_P2;Temp;Humidity;BMP_temperature;BMP_pressure;BME280_temperature;BME280_humidity;BME280_pressure;Samples;Min_cycle;Max_cycle;Signal;HPM_P1;HPM_P2
2023/01/31 00:01:08;;;;;;;0.40;0.30;;;1.90;99.90;;;;;;5076198;28;20449;-81
2023/01/31 00:03:35;;;;;;;0.30;0.30;;;1.80;99.90;;;;;;5076218;28;20444;-82
2023/01/31 00:06:17;;;;;;;0.50;0.50;;;1.80;99.90;;;;;;5075710;28;21047;-82
2023/01/31 00:08:45;;;;;;;0.70;0.50;;;1.70;99.90;;;;;;5076135;28;20434;-82
2023/01/31 00:11:14;;;;;;;0.30;0.20;;;1.70;99.90;;;;;;5075718;28;20457;-81
2023/01/31 00:13:41;;;;;;;0.37;0.30;;;1.70;99.90;;;;;;5075878;28;20487;-81
2023/01/31 00:16:09;;;;;;;0.40;0.30;;;1.80;99.90;;;;;;5075484;28;20493;-82
2023/01/31 00:18:37;;;;;;;0.40;0.40;;;1.80;99.90;;;;;;5075869;28;20449;-81
2023/01/31 00:21:09;;;;;;;0.30;0.30;;;1.80;99.90;;;;;;5075911;28;20499;-81
2023/01/31 00:23:36;;;;;;;2.40;0.40;;;1.70;99.90;;;;;;5075892;28;20435;-81
2023/01/31 00:26:10;;;;;;;0.30;0.30;;;1.70;99.90;;;;;;5076046;28;20474;-81
2023/01/31 00:28:38;;;;;;;0.40;0.40;;;1.70;99.90;;;;;;5075717;28;20455;-81
2023/01/31 00:31:05;;;;;;;0.60;0.30;;;1.70;99.90;;;;;;5075743;28;20476;-81
2023/01/31 00:33:33;;;;;;;0.90;0.90;;;1.60;99.90;;;;;;5075607;28;20844;-81
2023/01/31 00:36:03;;;;;;;0.40;0.40;;;1.60;99.90;;;;;;5075497;28;20473;-81
2023/01/31 00:38:30;;;;;;;0.53;0.53;;;1.50;99.90;;;;;;5075351;28;20874;-81
2023/01/31 00:40:57;;;;;;;0.30;0.30;;;1.50;99.90;;;;;;5075482;28;20456;-82
2023/01/31 00:43:23;;;;;;;0.30;0.30;;;1.40;99.90;;;;;;5075489;28;20441;-81
2023/01/31 00:45:52;;;;;;;0.30;0.20;;;1.40;99.90;;;;;;5074342;28;20469;-82
2023/01/31 00:48:18;;;;;;;0.50;0.50;;;1.40;99.90;;;;;;5075376;28;20464;-82
2023/01/31 00:50:45;;;;;;;0.40;0.40;;;1.40;99.90;;;;;;5075305;28;20817;-81
2023/01/31 00:53:12;;;;;;;0.30;0.30;;;1.40;99.90;;;;;;5075289;28;20556;-82
2023/01/31 00:55:39;;;;;;;0.30;0.20;;;1.40;99.90;;;;;;5075163;28;20476;-82
2023/01/31 00:58:06;;;;;;;0.30;0.20;;;1.40;99.90;;;;;;5075154;28;20453;-82
2023/01/31 01:00:32;;;;;;;0.30;0.20;;;1.40;99.90;;;;;;5075145;28;20449;-81
2023/01/31 01:03:00;;;;;;;0.30;0.30;;;1.40;99.90;;;;;;5074722;28;21043;-81
2023/01/31 01:05:27;;;;;;;0.60;0.40;;;1.40;99.90;;;;;;5074656;28;20461;-81
2023/01/31 01:07:54;;;;;;;0.40;0.37;;;1.40;99.90;;;;;;5076006;28;20450;-81
2023/01/31 01:10:21;;;;;;;0.43;0.43;;;1.50;99.90;;;;;;5074890;28;20446;-82
2023/01/31 01:12:48;;;;;;;0.40;0.40;;;1.40;99.90;;;;;;5074756;28;20500;-81
2023/01/31 01:15:14;;;;;;;0.30;0.30;;;1.30;99.90;;;;;;5074553;28;20481;-81
2023/01/31 01:17:41;;;;;;;0.40;0.30;;;1.40;99.90;;;;;;5074427;28;20795;-81
2023/01/31 01:20:11;;;;;;;0.30;0.20;;;1.40;99.90;;;;;;5074433;28;20452;-81
2023/01/31 01:22:38;;;;;;;0.30;0.30;;;1.30;99.90;;;;;;5074975;28;20468;-81
2023/01/31 01:25:06;;;;;;;0.30;0.20;;;1.30;99.90;;;;;;5074674;28;20457;-82
2023/01/31 01:27:32;;;;;;;0.30;0.20;;;1.30;99.90;;;;;;5074522;28;20493;-82
2023/01/31 01:30:00;;;;;;;0.30;0.30;;;1.20;99.90;;;;;;5074517;28;20445;-82
2023/01/31 01:32:27;;;;;;;0.50;0.40;;;1.20;99.90;;;;;;5074503;28;20489;-81
2023/01/31 01:34:54;;;;;;;0.30;0.20;;;1.20;99.90;;;;;;5074699;28;20431;-82
2023/01/31 01:37:23;;;;;;;0.30;0.30;;;1.10;99.90;;;;;;5074432;28;20441;-81
2023/01/31 01:39:51;;;;;;;0.30;0.20;;;1.10;99.90;;;;;;5074315;28;20457;-82
2023/01/31 01:42:19;;;;;;;0.30;0.30;;;1.20;99.90;;;;;;5074038;28;20941;-82
2023/01/31 01:44:51;;;;;;;0.30;0.30;;;1.20;99.90;;;;;;5074293;28;20437;-82
2023/01/31 01:47:26;;;;;;;2.97;0.50;;;1.30;99.90;;;;;;5074127;28;20465;-82
2023/01/31 01:49:57;;;;;;;0.30;0.30;;;1.30;99.90;;;;;;5074066;28;20912;-82
2023/01/31 01:52:28;;;;;;;0.30;0.30;;;1.40;99.90;;;;;;5074058;28;20466;-82
2023/01/31 01:54:58;;;;;;;0.33;0.30;;;1.40;99.90;;;;;;5074015;28;20470;-82
2023/01/31 01:57:29;;;;;;;0.40;0.40;;;1.40;99.90;;;;;;5073808;28;20452;-82
2023/01/31 02:00:04;;;;;;;0.30;0.30;;;1.40;99.90;;;;;;5073713;28;20941;-82
2023/01/31 02:02:31;;;;;;;1.73;0.40;;;1.30;99.90;;;;;;5073931;28;20430;-82
2023/01/31 02:04:57;;;;;;;0.30;0.30;;;1.20;99.90;;;;;;5073958;28;20453;-81
2023/01/31 02:07:26;;;;;;;1.20;0.37;;;1.20;99.90;;;;;;5073560;28;20972;-81
2023/01/31 02:09:58;;;;;;;0.30;0.30;;;1.20;99.90;;;;;;5073540;28;20442;-81
2023/01/31 02:12:25;;;;;;;0.30;0.20;;;1.20;99.90;;;;;;5073776;28;20473;-81
2023/01/31 02:14:53;;;;;;;0.67;0.30;;;1.10;99.90;;;;;;5073291;28;20508;-81
2023/01/31 02:17:20;;;;;;;0.30;0.30;;;1.10;99.90;;;;;;5073572;28;20472;-82
2023/01/31 02:20:02;;;;;;;0.30;0.20;;;1.00;99.90;;;;;;5073739;28;20818;-81
2023/01/31 02:22:34;;;;;;;0.30;0.30;;;1.00;99.90;;;;;;5073639;28;20408;-81
2023/01/31 02:25:43;;;;;;;0.30;0.30;;;1.00;99.90;;;;;;5073559;28;20488;-81
2023/01/31 02:28:41;;;;;;;0.30;0.30;;;0.90;99.90;;;;;;5073548;28;20461;-82
2023/01/31 02:31:56;;;;;;;0.30;0.30;;;0.90;99.90;;;;;;5037224;28;20465;-81
2023/01/31 02:34:30;;;;;;;0.53;0.30;;;0.90;99.90;;;;;;5073497;28;20466;-81
2023/01/31 02:37:04;;;;;;;0.43;0.40;;;0.80;99.90;;;;;;5073698;28;20818;-82
2023/01/31 02:39:39;;;;;;;0.40;0.37;;;0.80;99.90;;;;;;5073442;28;20429;-82
2023/01/31 02:42:15;;;;;;;0.70;0.40;;;0.80;99.90;;;;;;5073516;28;20426;-81
2023/01/31 02:44:59;;;;;;;0.33;0.27;;;0.80;99.90;;;;;;5073430;28;20440;-81
2023/01/31 02:47:37;;;;;;;0.77;0.47;;;0.80;99.90;;;;;;5073137;28;20432;-81
2023/01/31 02:50:12;;;;;;;0.30;0.30;;;0.80;99.90;;;;;;5073095;28;20425;-81
2023/01/31 02:52:45;;;;;;;0.40;0.40;;;0.80;99.90;;;;;;5073273;28;20468;-81
2023/01/31 02:58:05;;;;;;;0.30;0.30;;;0.80;99.90;;;;;;5073072;28;20409;-81
2023/01/31 03:00:34;;;;;;;0.30;0.30;;;0.80;99.90;;;;;;5073266;28;20475;-81
2023/01/31 03:03:03;;;;;;;0.87;0.77;;;0.80;99.90;;;;;;5072864;28;20457;-82
2023/01/31 03:05:31;;;;;;;0.30;0.20;;;0.90;99.90;;;;;;5073087;28;21005;-81
2023/01/31 03:08:03;;;;;;;0.50;0.50;;;0.90;99.90;;;;;;5072845;28;20821;-81
2023/01/31 03:10:59;;;;;;;0.30;0.20;;;0.90;99.90;;;;;;5076972;28;20477;-82
2023/01/31 03:13:35;;;;;;;0.40;0.30;;;1.00;99.90;;;;;;5071876;28;20509;-82
2023/01/31 03:19:13;;;;;;;0.40;0.40;;;0.90;99.90;;;;;;5076955;28;20425;-82
2023/01/31 03:21:46;;;;;;;0.30;0.20;;;1.00;99.90;;;;;;5076714;28;20483;-82
2023/01/31 03:24:14;;;;;;;0.50;0.30;;;1.00;99.90;;;;;;5077113;28;20860;-82
2023/01/31 03:26:41;;;;;;;0.30;0.30;;;0.90;99.90;;;;;;5076565;28;20447;-82
2023/01/31 03:29:11;;;;;;;0.30;0.30;;;1.00;99.90;;;;;;5076881;28;20460;-82
2023/01/31 03:31:41;;;;;;;0.30;0.20;;;1.00;99.90;;;;;;5076876;28;20464;-81
2023/01/31 03:34:11;;;;;;;0.30;0.30;;;1.00;99.90;;;;;;5076560;28;20469;-82
2023/01/31 03:36:46;;;;;;;0.63;0.60;;;0.90;99.90;;;;;;5076603;28;20523;-82
2023/01/31 03:39:18;;;;;;;1.33;0.83;;;0.90;99.90;;;;;;5076410;28;20905;-82
2023/01/31 03:41:52;;;;;;;0.30;0.20;;;0.80;99.90;;;;;;5076692;28;20434;-82
2023/01/31 03:44:27;;;;;;;0.67;0.67;;;0.80;99.90;;;;;;5076754;28;20430;-82
2023/01/31 03:46:59;;;;;;;0.30;0.30;;;0.80;99.90;;;;;;5076465;28;20443;-82
2023/01/31 03:49:27;;;;;;;0.30;0.30;;;0.80;99.90;;;;;;5076563;28;20429;-82
2023/01/31 03:52:02;;;;;;;0.30;0.30;;;0.80;99.90;;;;;;5076142;28;20937;-82
2023/01/31 03:54:34;;;;;;;1.17;0.40;;;0.80;99.90;;;;;;5076949;28;20508;-82
2023/01/31 03:57:07;;;;;;;0.33;0.30;;;0.80;99.90;;;;;;5076351;28;20466;-82
2023/01/31 03:59:39;;;;;;;0.30;0.20;;;0.80;99.90;;;;;;5076290;28;20429;-82
2023/01/31 04:02:10;;;;;;;0.30;0.30;;;0.80;99.90;;;;;;5076402;28;20464;-82
2023/01/31 04:04:42;;;;;;;0.30;0.30;;;0.80;99.90;;;;;;5076495;28;20437;-82
2023/01/31 04:07:11;;;;;;;0.30;0.20;;;0.80;99.90;;;;;;5076179;28;20469;-82
2023/01/31 04:09:38;;;;;;;0.40;0.30;;;0.70;99.90;;;;;;5075779;28;20961;-82
2023/01/31 04:12:05;;;;;;;0.30;0.30;;;0.70;99.90;;;;;;5076263;28;20460;-82
2023/01/31 04:14:32;;;;;;;0.73;0.73;;;0.70;99.90;;;;;;5075743;28;20488;-82
2023/01/31 04:16:59;;;;;;;0.60;0.40;;;0.70;99.90;;;;;;5075617;28;20471;-82
2023/01/31 04:19:26;;;;;;;0.40;0.33;;;0.60;99.90;;;;;;5075629;28;20453;-81
2023/01/31 04:21:52;;;;;;;0.30;0.30;;;0.60;99.90;;;;;;5075880;28;20446;-82
2023/01/31 04:24:21;;;;;;;0.90;0.40;;;0.60;99.90;;;;;;5076108;28;20441;-82
2023/01/31 04:26:48;;;;;;;0.30;0.20;;;0.60;99.90;;;;;;5075748;28;20448;-82
2023/01/31 04:29:14;;;;;;;0.30;0.30;;;0.60;99.90;;;;;;5075849;28;20465;-82
2023/01/31 04:31:41;;;;;;;0.40;0.30;;;0.60;99.90;;;;;;5075725;28;20449;-82
2023/01/31 04:34:08;;;;;;;0.30;0.30;;;0.60;99.90;;;;;;5075281;28;20525;-82
2023/01/31 04:36:35;;;;;;;0.40;0.40;;;0.60;99.90;;;;;;5075548;28;20476;-82
2023/01/31 04:39:02;;;;;;;0.30;0.30;;;0.50;99.90;;;;;;5075382;28;20972;-82
2023/01/31 04:41:30;;;;;;;0.30;0.30;;;0.50;99.90;;;;;;5075554;28;20481;-82
2023/01/31 04:43:57;;;;;;;0.30;0.20;;;0.50;99.90;;;;;;5075456;28;20442;-82
2023/01/31 04:46:24;;;;;;;0.43;0.27;;;0.50;99.90;;;;;;5075398;28;20476;-82
2023/01/31 04:48:50;;;;;;;0.30;0.30;;;0.40;99.90;;;;;;5075389;28;20450;-82
2023/01/31 04:51:17;;;;;;;7.03;0.50;;;0.40;99.90;;;;;;5075095;28;20976;-82
2023/01/31 04:53:44;;;;;;;0.30;0.20;;;0.30;99.90;;;;;;5075015;28;21088;-82
2023/01/31 04:56:11;;;;;;;0.30;0.30;;;0.30;99.90;;;;;;5075286;28;20465;-82
2023/01/31 04:58:40;;;;;;;0.30;0.20;;;0.30;99.90;;;;;;5075246;28;20464;-81
2023/01/31 05:01:07;;;;;;;0.30;0.30;;;0.30;99.90;;;;;;5075153;28;20442;-81
2023/01/31 05:03:34;;;;;;;0.40;0.30;;;0.30;99.90;;;;;;5075064;28;20449;-82
2023/01/31 05:06:01;;;;;;;0.40;0.40;;;0.30;99.90;;;;;;5075065;28;20488;-82
2023/01/31 05:08:28;;;;;;;0.30;0.30;;;0.30;99.90;;;;;;5074661;28;20963;-82
2023/01/31 05:10:58;;;;;;;0.40;0.30;;;0.20;99.90;;;;;;5074744;28;20969;-82
2023/01/31 05:13:24;;;;;;;0.40;0.40;;;0.20;99.90;;;;;;5074678;28;21043;-82
2023/01/31 05:15:53;;;;;;;0.30;0.30;;;0.20;99.90;;;;;;5074502;28;20481;-81
2023/01/31 05:18:20;;;;;;;0.30;0.20;;;0.20;99.90;;;;;;5074912;28;20448;-82
2023/01/31 05:20:49;;;;;;;0.50;0.50;;;0.20;99.90;;;;;;5074938;28;20449;-81
2023/01/31 05:23:16;;;;;;;0.60;0.60;;;0.20;99.90;;;;;;5074778;28;20457;-82
2023/01/31 05:25:44;;;;;;;0.70;0.70;;;0.20;99.90;;;;;;5074620;28;20485;-82
2023/01/31 05:28:11;;;;;;;0.30;0.20;;;0.20;99.90;;;;;;5074875;28;20449;-81
2023/01/31 05:30:38;;;;;;;0.50;0.37;;;0.20;99.90;;;;;;5074574;28;20446;-81
2023/01/31 05:33:06;;;;;;;0.77;0.40;;;0.20;99.90;;;;;;5073989;28;20458;-82
2023/01/31 05:35:33;;;;;;;1.60;0.70;;;0.20;99.90;;;;;;5074412;28;20465;-81
2023/01/31 05:37:59;;;;;;;0.30;0.30;;;0.20;99.90;;;;;;5074437;28;20453;-82
2023/01/31 05:40:26;;;;;;;0.30;0.30;;;0.20;99.90;;;;;;5074428;28;20454;-82
2023/01/31 05:42:58;;;;;;;0.80;0.40;;;0.30;99.90;;;;;;5074429;28;20468;-82
2023/01/31 05:45:25;;;;;;;0.30;0.30;;;0.20;99.90;;;;;;5073901;28;20485;-82
2023/01/31 05:47:52;;;;;;;0.30;0.20;;;0.20;99.90;;;;;;5074265;28;20465;-82
2023/01/31 05:50:21;;;;;;;0.30;0.30;;;0.20;99.90;;;;;;5074242;28;20457;-82
2023/01/31 05:52:52;;;;;;;0.80;0.73;;;0.20;99.90;;;;;;5073838;28;20964;-82
2023/01/31 05:55:19;;;;;;;0.37;0.33;;;0.20;99.90;;;;;;5073962;28;20511;-82
2023/01/31 05:57:46;;;;;;;0.47;0.47;;;0.20;99.90;;;;;;5074032;28;20443;-82
2023/01/31 06:00:14;;;;;;;0.73;0.73;;;0.20;99.90;;;;;;5074081;28;20444;-83
2023/01/31 06:02:41;;;;;;;0.30;0.20;;;0.20;99.90;;;;;;5074210;28;20450;-83
2023/01/31 06:05:09;;;;;;;2.20;2.00;;;0.10;99.90;;;;;;5073786;28;20448;-83
2023/01/31 06:07:37;;;;;;;0.30;0.30;;;0.10;99.90;;;;;;5073617;28;20941;-83
2023/01/31 06:10:07;;;;;;;0.30;0.20;;;0.10;99.90;;;;;;5073608;28;20949;-83
2023/01/31 06:12:34;;;;;;;0.33;0.27;;;0.10;99.90;;;;;;5073907;28;20426;-83
2023/01/31 06:15:00;;;;;;;0.30;0.20;;;0.10;99.90;;;;;;5073540;28;20592;-83
2023/01/31 06:17:27;;;;;;;0.30;0.30;;;0.20;99.90;;;;;;5073846;28;20456;-83
2023/01/31 06:19:54;;;;;;;0.30;0.20;;;0.10;99.90;;;;;;5073765;28;20457;-83
2023/01/31 06:22:21;;;;;;;0.30;0.30;;;0.10;99.90;;;;;;5073939;28;20461;-83
2023/01/31 06:24:49;;;;;;;0.30;0.30;;;0.10;99.90;;;;;;5073411;28;20430;-83
2023/01/31 06:27:15;;;;;;;0.40;0.30;;;0.10;99.90;;;;;;5073542;28;21039;-83
2023/01/31 06:29:42;;;;;;;0.30;0.30;;;0.10;99.90;;;;;;5073446;28;20438;-83
2023/01/31 06:32:09;;;;;;;1.07;0.93;;;0.10;99.90;;;;;;5073499;28;20437;-83
2023/01/31 06:34:36;;;;;;;0.90;0.90;;;0.10;99.90;;;;;;5073130;28;20844;-83
2023/01/31 06:37:02;;;;;;;0.40;0.40;;;0.00;99.90;;;;;;5073621;28;20841;-83
2023/01/31 06:39:29;;;;;;;0.30;0.20;;;0.00;99.90;;;;;;5073558;28;20449;-83
2023/01/31 06:41:57;;;;;;;0.30;0.20;;;0.00;99.90;;;;;;5073540;28;20445;-84
2023/01/31 06:44:24;;;;;;;0.40;0.37;;;0.00;99.90;;;;;;5072981;28;20800;-83
2023/01/31 06:46:51;;;;;;;0.63;0.30;;;0.00;99.90;;;;;;5073249;28;20469;-83
2023/01/31 06:49:17;;;;;;;0.30;0.30;;;0.00;99.90;;;;;;5073594;28;20433;-83
2023/01/31 06:51:44;;;;;;;0.40;0.40;;;0.00;99.90;;;;;;5073327;28;20457;-83
2023/01/31 06:54:11;;;;;;;0.40;0.40;;;0.00;99.90;;;;;;5073141;28;21003;-83
2023/01/31 06:56:37;;;;;;;1.50;0.50;;;0.00;99.90;;;;;;5072994;28;20470;-83
2023/01/31 06:59:05;;;;;;;0.30;0.30;;;0.00;99.90;;;;;;5073258;28;20449;-83
2023/01/31 07:01:32;;;;;;;0.30;0.27;;;0.00;99.90;;;;;;5073227;28;20940;-83
2023/01/31 07:03:59;;;;;;;1.70;1.13;;;0.00;99.90;;;;;;5073500;28;20441;-83
2023/01/31 07:06:26;;;;;;;0.40;0.40;;;0.00;99.90;;;;;;5073254;28;20476;-82
2023/01/31 07:08:52;;;;;;;0.60;0.60;;;0.10;99.90;;;;;;5073019;28;20457;-83
2023/01/31 07:11:19;;;;;;;0.30;0.20;;;0.10;99.90;;;;;;5073185;28;20453;-83
2023/01/31 07:13:46;;;;;;;0.30;0.30;;;0.10;99.90;;;;;;5073062;28;20460;-83
2023/01/31 07:16:15;;;;;;;0.40;0.40;;;0.10;99.90;;;;;;5072735;28;20522;-83
2023/01/31 07:18:42;;;;;;;0.30;0.30;;;0.10;99.90;;;;;;5073992;28;20458;-82
2023/01/31 07:21:09;;;;;;;0.30;0.30;;;0.10;99.90;;;;;;5073189;28;20456;-82
2023/01/31 07:23:36;;;;;;;0.33;0.33;;;0.10;99.90;;;;;;5073032;28;20456;-82
2023/01/31 07:26:04;;;;;;;0.30;0.30;;;0.10;99.90;;;;;;5072926;28;20466;-82
2023/01/31 07:28:30;;;;;;;0.30;0.20;;;0.20;99.90;;;;;;5072994;28;20430;-82
2023/01/31 07:31:04;;;;;;;0.30;0.20;;;0.20;99.90;;;;;;5073025;28;20485;-82
2023/01/31 07:33:33;;;;;;;1.80;0.50;;;0.20;99.90;;;;;;5072666;28;20422;-82
2023/01/31 07:36:01;;;;;;;0.30;0.30;;;0.30;99.90;;;;;;5072462;28;21021;-82
2023/01/31 07:38:28;;;;;;;5.80;0.87;;;0.30;99.90;;;;;;5072787;28;20454;-82
2023/01/31 07:40:59;;;;;;;0.30;0.20;;;0.40;99.90;;;;;;5072729;28;20460;-82
2023/01/31 07:43:25;;;;;;;0.30;0.30;;;0.40;99.90;;;;;;5072764;28;20446;-82
2023/01/31 07:45:52;;;;;;;0.30;0.30;;;0.40;99.90;;;;;;5072336;28;20462;-82
2023/01/31 07:48:22;;;;;;;0.40;0.40;;;0.50;99.90;;;;;;5072643;28;20453;-82
2023/01/31 07:50:50;;;;;;;0.30;0.30;;;0.50;99.90;;;;;;5072700;28;20507;-82
2023/01/31 07:53:17;;;;;;;0.30;0.30;;;0.50;99.90;;;;;;5072691;28;20449;-82
2023/01/31 07:55:46;;;;;;;0.30;0.30;;;0.60;99.90;;;;;;5074761;28;20489;-82
2023/01/31 07:58:13;;;;;;;0.50;0.40;;;0.70;99.90;;;;;;5075922;28;20438;-82
2023/01/31 08:03:38;;;;;;;0.30;0.30;;;0.80;99.90;;;;;;5053905;28;20477;-82
2023/01/31 08:06:08;;;;;;;0.30;0.30;;;0.80;99.90;;;;;;5053627;28;20473;-82
2023/01/31 08:08:36;;;;;;;0.30;0.20;;;0.90;99.90;;;;;;5063636;28;20441;-82
2023/01/31 08:11:04;;;;;;;0.30;0.30;;;0.90;99.90;;;;;;5075873;28;20448;-82
2023/01/31 08:13:31;;;;;;;0.30;0.30;;;1.00;99.90;;;;;;5075719;28;20469;-82
2023/01/31 08:15:58;;;;;;;0.30;0.30;;;1.00;99.90;;;;;;5075417;28;20497;-82
2023/01/31 08:18:24;;;;;;;0.30;0.30;;;1.10;99.90;;;;;;5075616;28;20529;-82
2023/01/31 08:20:51;;;;;;;0.87;0.87;;;1.10;99.90;;;;;;5075647;28;20454;-82
2023/01/31 08:23:20;;;;;;;0.40;0.30;;;1.20;99.90;;;;;;5075682;28;20449;-82
2023/01/31 08:25:46;;;;;;;0.30;0.23;;;1.20;99.90;;;;;;5075294;28;20469;-82
2023/01/31 08:28:14;;;;;;;4.13;0.83;;;1.30;99.90;;;;;;5075644;28;20460;-82
2023/01/31 08:30:41;;;;;;;0.30;0.27;;;1.40;99.90;;;;;;5075725;28;20550;-82
2023/01/31 08:33:08;;;;;;;0.30;0.20;;;1.50;99.90;;;;;;5075357;28;20941;-82
2023/01/31 08:35:35;;;;;;;0.70;0.50;;;1.70;99.90;;;;;;5075145;28;20492;-82
2023/01/31 08:38:02;;;;;;;0.50;0.50;;;1.90;99.90;;;;;;5075356;28;20967;-82
2023/01/31 08:40:32;;;;;;;0.30;0.30;;;2.10;99.90;;;;;;5075632;28;20479;-82
2023/01/31 08:43:00;;;;;;;0.37;0.33;;;2.30;99.90;;;;;;5075806;28;20941;-82
2023/01/31 08:45:27;;;;;;;1.80;0.60;;;2.50;99.90;;;;;;5075250;28;20466;-83
2023/01/31 08:47:55;;;;;;;0.30;0.30;;;2.70;99.90;;;;;;5075416;28;20464;-84
2023/01/31 08:50:22;;;;;;;1.00;0.60;;;3.00;99.90;;;;;;5075336;28;20495;-84
2023/01/31 08:52:53;;;;;;;0.60;0.40;;;3.40;99.90;;;;;;5075030;28;20967;-81
2023/01/31 08:55:20;;;;;;;0.93;0.47;;;3.80;99.90;;;;;;5075049;28;20995;-83
2023/01/31 08:57:48;;;;;;;0.40;0.40;;;4.30;99.90;;;;;;5074862;28;20457;-83
2023/01/31 09:00:16;;;;;;;0.50;0.40;;;4.80;99.90;;;;;;5075055;28;20450;-83
2023/01/31 09:02:45;;;;;;;0.83;0.40;;;5.40;99.90;;;;;;5075103;28;20438;-83
2023/01/31 09:05:12;;;;;;;0.40;0.30;;;6.20;99.90;;;;;;5075038;28;20555;-83
2023/01/31 09:07:39;;;;;;;0.70;0.40;;;6.60;99.90;;;;;;5073851;28;20905;-82
2023/01/31 09:10:06;;;;;;;9.73;0.70;;;6.60;99.90;;;;;;5075021;28;20467;-82
2023/01/31 09:12:34;;;;;;;0.77;0.47;;;6.60;99.90;;;;;;5075165;28;20445;-82
2023/01/31 09:15:03;;;;;;;0.60;0.40;;;6.90;99.90;;;;;;5074729;28;20985;-82
2023/01/31 09:17:30;;;;;;;0.70;0.67;;;7.00;99.90;;;;;;5074936;28;20456;-82
2023/01/31 09:19:56;;;;;;;0.50;0.43;;;7.00;99.90;;;;;;5074603;28;20449;-83
2023/01/31 09:22:23;;;;;;;1.07;0.67;;;6.90;99.90;;;;;;5074427;28;20901;-83
2023/01/31 09:24:50;;;;;;;0.40;0.40;;;6.90;99.90;;;;;;5074524;28;20441;-83
2023/01/31 09:27:16;;;;;;;3.50;0.70;;;6.80;99.90;;;;;;5074220;28;21001;-82
2023/01/31 09:29:43;;;;;;;0.80;0.37;;;6.70;99.90;;;;;;5074493;28;20456;-82
2023/01/31 09:32:11;;;;;;;0.43;0.43;;;6.50;99.90;;;;;;5074502;28;20460;-82
2023/01/31 09:34:38;;;;;;;3.17;1.07;;;6.20;99.90;;;;;;5074391;28;20473;-82
2023/01/31 09:37:05;;;;;;;0.90;0.60;;;6.10;99.90;;;;;;5074349;28;20465;-82
2023/01/31 09:39:32;;;;;;;0.50;0.47;;;6.00;99.90;;;;;;5074381;28;20448;-82
2023/01/31 09:42:06;;;;;;;0.93;0.40;;;6.10;99.90;;;;;;5074135;28;20937;-81
2023/01/31 09:44:39;;;;;;;0.33;0.30;;;6.30;99.90;;;;;;5074308;28;20524;-82
2023/01/31 09:47:14;;;;;;;0.47;0.47;;;6.90;99.90;;;;;;5074455;28;20465;-82
2023/01/31 09:49:46;;;;;;;0.30;0.20;;;7.60;99.90;;;;;;5074318;28;20429;-82
2023/01/31 09:52:13;;;;;;;1.83;0.40;;;7.90;99.90;;;;;;5073979;28;20417;-83
2023/01/31 09:54:41;;;;;;;0.40;0.40;;;7.80;99.90;;;;;;5074021;28;20437;-82
2023/01/31 09:57:19;;;;;;;1.73;0.70;;;7.40;99.90;;;;;;5074094;28;20465;-82
2023/01/31 09:59:49;;;;;;;0.40;0.40;;;7.00;99.90;;;;;;5073914;28;20437;-83
2023/01/31 10:02:58;;;;;;;2.63;0.70;;;6.60;99.90;;;;;;5073935;28;20457;-83
2023/01/31 10:05:36;;;;;;;1.90;0.37;;;6.20;99.90;;;;;;5073637;28;20988;-82
2023/01/31 10:08:12;;;;;;;0.50;0.50;;;5.90;99.90;;;;;;5073927;28;20429;-82
2023/01/31 10:10:45;;;;;;;0.30;0.30;;;5.80;99.90;;;;;;5073582;28;20440;-82
2023/01/31 10:13:19;;;;;;;0.53;0.50;;;5.60;99.90;;;;;;5073849;28;20434;-82
2023/01/31 10:15:50;;;;;;;0.40;0.30;;;5.50;99.90;;;;;;5073364;28;21043;-82
2023/01/31 10:18:25;;;;;;;0.83;0.50;;;5.50;99.90;;;;;;5073651;28;20862;-82
2023/01/31 10:20:56;;;;;;;0.40;0.40;;;5.40;99.90;;;;;;5073787;28;20425;-82
2023/01/31 10:23:29;;;;;;;0.87;0.83;;;5.60;99.90;;;;;;5073704;28;20437;-82
2023/01/31 10:25:59;;;;;;;0.93;0.50;;;5.60;99.90;;;;;;5073590;28;20519;-82
2023/01/31 10:28:34;;;;;;;0.40;0.30;;;5.60;99.90;;;;;;5073627;28;20487;-82
2023/01/31 10:31:06;;;;;;;0.40;0.30;;;5.50;99.90;;;;;;5073650;28;20437;-82
2023/01/31 10:33:41;;;;;;;0.40;0.30;;;5.40;99.90;;;;;;5073544;28;20481;-82
2023/01/31 10:36:14;;;;;;;0.40;0.30;;;5.40;99.90;;;;;;5073379;28;20534;-82
2023/01/31 10:38:54;;;;;;;0.30;0.30;;;5.40;99.90;;;;;;5073278;28;20914;-82
2023/01/31 10:41:29;;;;;;;0.40;0.40;;;5.50;99.90;;;;;;5073187;28;20425;-82
2023/01/31 10:44:02;;;;;;;0.30;0.20;;;5.60;99.90;;;;;;5073604;28;20436;-82
2023/01/31 10:46:29;;;;;;;0.30;0.20;;;5.70;99.90;;;;;;5073448;28;20473;-82
2023/01/31 10:48:57;;;;;;;0.60;0.60;;;5.70;99.90;;;;;;5073664;28;20441;-82
2023/01/31 10:51:38;;;;;;;0.30;0.20;;;5.60;99.90;;;;;;5073300;28;20456;-82
2023/01/31 10:54:16;;;;;;;0.40;0.40;;;5.50;99.90;;;;;;5073415;28;20434;-82
2023/01/31 10:56:45;;;;;;;2.50;0.50;;;5.50;99.90;;;;;;5073179;28;20565;-82
2023/01/31 10:59:18;;;;;;;0.30;0.30;;;5.40;99.90;;;;;;5073593;28;20457;-82
2023/01/31 11:01:45;;;;;;;0.30;0.30;;;5.50;99.90;;;;;;5073211;28;20441;-82
2023/01/31 11:04:24;;;;;;;0.30;0.20;;;5.60;99.90;;;;;;5073238;28;20441;-82
2023/01/31 11:06:51;;;;;;;0.50;0.50;;;5.70;99.90;;;;;;5072836;28;20476;-82
2023/01/31 11:09:18;;;;;;;0.40;0.40;;;5.80;99.90;;;;;;5072971;28;20442;-82
2023/01/31 11:11:55;;;;;;;0.30;0.27;;;5.90;99.90;;;;;;5072958;28;20433;-81
2023/01/31 11:14:22;;;;;;;0.30;0.30;;;6.00;99.90;;;;;;5072980;28;20479;-80
2023/01/31 11:16:56;;;;;;;0.47;0.47;;;6.00;99.90;;;;;;5073038;28;20497;-80
2023/01/31 11:19:30;;;;;;;0.50;0.50;;;6.40;99.90;;;;;;5073369;28;20429;-82
2023/01/31 11:21:57;;;;;;;0.40;0.30;;;6.70;99.90;;;;;;5073099;28;20437;-81
2023/01/31 11:24:27;;;;;;;0.40;0.40;;;7.00;99.90;;;;;;5073137;28;20460;-82
2023/01/31 11:26:57;;;;;;;0.30;0.30;;;7.30;99.90;;;;;;5072968;28;20473;-82
2023/01/31 11:29:28;;;;;;;0.77;0.70;;;7.50;99.90;;;;;;5073288;28;20438;-82
2023/01/31 11:31:56;;;;;;;0.40;0.40;;;7.60;99.90;;;;;;5076911;28;20503;-82
2023/01/31 11:34:28;;;;;;;0.40;0.30;;;7.60;99.90;;;;;;5076953;28;20453;-82
2023/01/31 11:37:04;;;;;;;0.50;0.30;;;7.60;99.90;;;;;;5076680;28;20492;-82
2023/01/31 11:39:33;;;;;;;0.50;0.33;;;7.80;99.90;;;;;;5076744;28;20430;-82
2023/01/31 11:42:06;;;;;;;0.40;0.30;;;8.00;99.90;;;;;;5076688;28;20444;-81
2023/01/31 11:44:33;;;;;;;0.93;0.93;;;8.00;99.90;;;;;;5076700;28;20441;-81
2023/01/31 11:47:03;;;;;;;0.50;0.40;;;7.80;99.90;;;;;;5076522;28;20464;-81
2023/01/31 11:49:34;;;;;;;0.40;0.30;;;7.80;99.90;;;;;;5076343;28;20897;-81
2023/01/31 11:52:10;;;;;;;1.90;0.50;;;7.60;99.90;;;;;;5076568;28;20460;-81
2023/01/31 11:54:40;;;;;;;0.37;0.30;;;7.40;99.90;;;;;;5076252;28;20434;-81
2023/01/31 11:57:14;;;;;;;0.70;0.70;;;7.40;99.90;;;;;;5075983;28;20481;-80
2023/01/31 11:59:42;;;;;;;0.97;0.43;;;7.30;99.90;;;;;;5076409;28;20439;-81
2023/01/31 12:02:26;;;;;;;1.00;0.40;;;7.20;99.90;;;;;;5075907;28;20434;-81
2023/01/31 12:04:55;;;;;;;0.30;0.30;;;7.00;99.90;;;;;;5076204;28;20438;-81
2023/01/31 12:07:23;;;;;;;0.30;0.30;;;6.90;99.90;;;;;;5075793;28;20535;-81
2023/01/31 12:09:50;;;;;;;0.50;0.30;;;6.80;99.90;;;;;;5075921;28;20459;-81
2023/01/31 12:12:28;;;;;;;0.30;0.30;;;6.80;99.90;;;;;;5076081;28;20449;-82
2023/01/31 12:14:59;;;;;;;0.57;0.27;;;6.70;99.90;;;;;;5075709;28;20545;-82
2023/01/31 12:17:28;;;;;;;0.30;0.30;;;6.70;99.90;;;;;;5076479;28;20827;-82
2023/01/31 12:20:08;;;;;;;1.03;0.50;;;6.50;99.90;;;;;;5075549;28;20972;-82
2023/01/31 12:22:40;;;;;;;0.40;0.30;;;6.40;99.90;;;;;;5076236;28;20437;-81
2023/01/31 12:25:15;;;;;;;0.40;0.40;;;6.30;99.90;;;;;;5075783;28;20438;-82
2023/01/31 12:27:55;;;;;;;0.30;0.30;;;6.10;99.90;;;;;;5075559;28;20945;-82
2023/01/31 12:30:44;;;;;;;0.60;0.40;;;6.10;99.90;;;;;;5075857;28;20425;-82
2023/01/31 12:33:26;;;;;;;0.50;0.47;;;6.00;99.90;;;;;;5075773;28;20438;-82
2023/01/31 12:36:13;;;;;;;0.33;0.30;;;6.10;99.90;;;;;;5075651;28;20489;-82
2023/01/31 12:38:55;;;;;;;0.30;0.30;;;6.00;99.90;;;;;;5076012;28;20459;-82
2023/01/31 12:41:31;;;;;;;0.60;0.60;;;5.90;99.90;;;;;;5074069;28;20796;-82
2023/01/31 12:44:17;;;;;;;0.30;0.20;;;5.80;99.90;;;;;;5075289;28;20418;-82
2023/01/31 12:46:56;;;;;;;0.73;0.70;;;5.90;99.90;;;;;;5075232;28;20544;-82
2023/01/31 12:49:41;;;;;;;0.50;0.50;;;5.90;99.90;;;;;;5075662;28;20434;-82
2023/01/31 12:52:18;;;;;;;3.53;0.57;;;5.90;99.90;;;;;;5075116;28;20920;-82
2023/01/31 12:54:57;;;;;;;0.30;0.20;;;5.90;99.90;;;;;;5075094;28;20905;-82
2023/01/31 12:57:36;;;;;;;0.50;0.50;;;6.00;99.90;;;;;;5075157;28;20987;-82
2023/01/31 13:00:24;;;;;;;0.50;0.40;;;5.90;99.90;;;;;;5075059;28;20438;-82
2023/01/31 13:03:07;;;;;;;0.40;0.40;;;5.70;99.90;;;;;;5075322;28;20430;-82
2023/01/31 13:05:40;;;;;;;0.70;0.70;;;5.60;99.90;;;;;;5075220;28;20466;-82
2023/01/31 13:08:17;;;;;;;0.30;0.30;;;5.40;99.90;;;;;;5075165;28;20520;-82
2023/01/31 13:10:48;;;;;;;0.60;0.40;;;5.40;99.90;;;;;;5075148;28;20434;-82
2023/01/31 13:13:21;;;;;;;0.30;0.20;;;5.40;99.90;;;;;;5075031;28;20431;-82
2023/01/31 13:15:51;;;;;;;0.30;0.30;;;5.30;99.90;;;;;;5074600;28;20497;-82
2023/01/31 13:18:18;;;;;;;0.37;0.30;;;5.30;99.90;;;;;;5075011;28;20453;-81
2023/01/31 13:20:49;;;;;;;0.60;0.30;;;5.30;99.90;;;;;;5074785;28;20816;-82
2023/01/31 13:23:23;;;;;;;0.30;0.30;;;5.20;99.90;;;;;;5074862;28;20430;-82